sensor_id;sensor_type;location;lat;lon;timestamp;pressure;altitude;pressure_sealevel;temperature;humidity
58967;BME280;44744;51.894;5.080;2023-06-26T00:00:34;101297.42;;;25.83;46.21
58967;BME280;44744;51.894;5.080;2023-06-26T00:01:35;101297.27;;;25.81;46.34
58967;BME280;44744;51.894;5.080;2023-06-26T00:02:35;101300.48;;;25.80;46.40
58967;BME280;44744;51.894;5.080;2023-06-26T00:03:35;101300.46;;;25.79;46.44
58967;BME280;44744;51.894;5.080;2023-06-26T00:04:35;101297.73;;;25.77;46.56
58967;BME280;44744;51.894;5.080;2023-06-26T00:05:35;101298.09;;;25.76;46.58
58967;BME280;44744;51.894;5.080;2023-06-26T00:06:35;101294.13;;;25.74;46.74
58967;BME280;44744;51.894;5.080;2023-06-26T00:07:35;101291.91;;;25.72;46.72
58967;BME280;44744;51.894;5.080;2023-06-26T00:08:36;101293.52;;;25.69;46.85
58967;BME280;44744;51.894;5.080;2023-06-26T00:09:36;101294.48;;;25.66;46.77
58967;BME280;44744;51.894;5.080;2023-06-26T00:10:36;101295.27;;;25.62;46.84
58967;BME280;44744;51.894;5.080;2023-06-26T00:11:37;101295.03;;;25.59;47.00
58967;BME280;44744;51.894;5.080;2023-06-26T00:12:37;101294.81;;;25.58;47.18
58967;BME280;44744;51.894;5.080;2023-06-26T00:13:37;101290.16;;;25.56;47.18
58967;BME280;44744;51.894;5.080;2023-06-26T00:14:37;101293.55;;;25.54;47.22
58967;BME280;44744;51.894;5.080;2023-06-26T00:15:37;101292.52;;;25.52;47.34
58967;BME280;44744;51.894;5.080;2023-06-26T00:16:38;101293.55;;;25.51;47.29
58967;BME280;44744;51.894;5.080;2023-06-26T00:17:40;101291.72;;;25.48;47.39
58967;BME280;44744;51.894;5.080;2023-06-26T00:18:41;101295.46;;;25.46;47.37
58967;BME280;44744;51.894;5.080;2023-06-26T00:19:41;101287.80;;;25.43;47.49
58967;BME280;44744;51.894;5.080;2023-06-26T00:20:41;101287.05;;;25.41;47.47
58967;BME280;44744;51.894;5.080;2023-06-26T00:21:41;101287.13;;;25.41;47.60
58967;BME280;44744;51.894;5.080;2023-06-26T00:22:42;101286.80;;;25.39;47.70
58967;BME280;44744;51.894;5.080;2023-06-26T00:23:42;101290.11;;;25.38;47.71
58967;BME280;44744;51.894;5.080;2023-06-26T00:24:42;101285.73;;;25.37;47.76
58967;BME280;44744;51.894;5.080;2023-06-26T00:25:43;101288.10;;;25.37;47.86
58967;BME280;44744;51.894;5.080;2023-06-26T00:26:45;101291.10;;;25.36;47.83
58967;BME280;44744;51.894;5.080;2023-06-26T00:27:45;101290.75;;;25.34;47.93
58967;BME280;44744;51.894;5.080;2023-06-26T00:28:45;101291.00;;;25.33;47.84
58967;BME280;44744;51.894;5.080;2023-06-26T00:29:46;101290.35;;;25.33;47.96
58967;BME280;44744;51.894;5.080;2023-06-26T00:30:48;101290.50;;;25.31;48.00
58967;BME280;44744;51.894;5.080;2023-06-26T00:31:49;101290.36;;;25.29;47.99
58967;BME280;44744;51.894;5.080;2023-06-26T00:32:49;101291.61;;;25.26;48.07
58967;BME280;44744;51.894;5.080;2023-06-26T00:33:49;101293.59;;;25.21;47.99
58967;BME280;44744;51.894;5.080;2023-06-26T00:34:49;101297.15;;;25.17;48.03
58967;BME280;44744;51.894;5.080;2023-06-26T00:35:52;101298.95;;;25.10;47.92
58967;BME280;44744;51.894;5.080;2023-06-26T00:36:52;101295.90;;;25.07;48.20
58967;BME280;44744;51.894;5.080;2023-06-26T00:37:52;101294.67;;;25.01;48.26
58967;BME280;44744;51.894;5.080;2023-06-26T00:38:52;101296.46;;;24.95;48.37
58967;BME280;44744;51.894;5.080;2023-06-26T00:39:53;101296.24;;;24.87;48.62
58967;BME280;44744;51.894;5.080;2023-06-26T00:40:53;101292.27;;;24.79;48.80
58967;BME280;44744;51.894;5.080;2023-06-26T00:41:53;101294.55;;;24.69;48.58
58967;BME280;44744;51.894;5.080;2023-06-26T00:42:53;101296.69;;;24.63;48.94
58967;BME280;44744;51.894;5.080;2023-06-26T00:43:53;101299.96;;;24.57;49.16
58967;BME280;44744;51.894;5.080;2023-06-26T00:44:53;101302.55;;;24.51;49.14
58967;BME280;44744;51.894;5.080;2023-06-26T00:45:54;101303.92;;;24.46;49.43
58967;BME280;44744;51.894;5.080;2023-06-26T00:46:54;101311.31;;;24.39;49.51
58967;BME280;44744;51.894;5.080;2023-06-26T00:47:54;101310.83;;;24.33;49.79
58967;BME280;44744;51.894;5.080;2023-06-26T00:48:54;101314.30;;;24.28;49.77
58967;BME280;44744;51.894;5.080;2023-06-26T00:49:55;101318.82;;;24.23;49.98
58967;BME280;44744;51.894;5.080;2023-06-26T00:50:55;101316.00;;;24.16;50.28
58967;BME280;44744;51.894;5.080;2023-06-26T00:51:55;101320.02;;;24.11;50.51
58967;BME280;44744;51.894;5.080;2023-06-26T00:52:56;101316.46;;;24.06;50.99
58967;BME280;44744;51.894;5.080;2023-06-26T00:53:57;101321.34;;;23.99;50.83
58967;BME280;44744;51.894;5.080;2023-06-26T00:54:57;101324.66;;;23.95;50.91
58967;BME280;44744;51.894;5.080;2023-06-26T00:55:58;101322.41;;;23.90;51.25
58967;BME280;44744;51.894;5.080;2023-06-26T00:56:59;101325.80;;;23.85;51.33
58967;BME280;44744;51.894;5.080;2023-06-26T00:57:59;101326.14;;;23.80;51.42
58967;BME280;44744;51.894;5.080;2023-06-26T00:58:59;101331.02;;;23.76;51.75
58967;BME280;44744;51.894;5.080;2023-06-26T01:00:00;101332.23;;;23.72;52.01
58967;BME280;44744;51.894;5.080;2023-06-26T01:01:00;101330.98;;;23.64;52.12
58967;BME280;44744;51.894;5.080;2023-06-26T01:02:00;101332.27;;;23.57;52.49
58967;BME280;44744;51.894;5.080;2023-06-26T01:03:01;101332.45;;;23.48;52.53
58967;BME280;44744;51.894;5.080;2023-06-26T01:04:01;101330.61;;;23.41;52.75
58967;BME280;44744;51.894;5.080;2023-06-26T01:05:01;101331.57;;;23.34;52.98
58967;BME280;44744;51.894;5.080;2023-06-26T01:06:02;101329.80;;;23.25;53.21
58967;BME280;44744;51.894;5.080;2023-06-26T01:07:03;101328.23;;;23.15;53.32
58967;BME280;44744;51.894;5.080;2023-06-26T01:08:04;101329.64;;;23.08;53.60
58967;BME280;44744;51.894;5.080;2023-06-26T01:09:04;101323.02;;;23.00;53.62
58967;BME280;44744;51.894;5.080;2023-06-26T01:10:04;101329.16;;;22.95;54.12
58967;BME280;44744;51.894;5.080;2023-06-26T01:11:05;101327.19;;;22.87;54.16
58967;BME280;44744;51.894;5.080;2023-06-26T01:12:05;101325.77;;;22.81;54.28
58967;BME280;44744;51.894;5.080;2023-06-26T01:13:05;101331.17;;;22.76;54.32
58967;BME280;44744;51.894;5.080;2023-06-26T01:14:06;101332.64;;;22.74;54.43
58967;BME280;44744;51.894;5.080;2023-06-26T01:15:06;101330.61;;;22.73;54.33
58967;BME280;44744;51.894;5.080;2023-06-26T01:16:07;101328.24;;;22.71;54.74
58967;BME280;44744;51.894;5.080;2023-06-26T01:17:09;101335.98;;;22.69;55.10
58967;BME280;44744;51.894;5.080;2023-06-26T01:18:09;101342.30;;;22.65;55.06
58967;BME280;44744;51.894;5.080;2023-06-26T01:19:10;101343.14;;;22.63;55.31
58967;BME280;44744;51.894;5.080;2023-06-26T01:20:12;101347.11;;;22.59;55.48
58967;BME280;44744;51.894;5.080;2023-06-26T01:21:13;101343.30;;;22.56;55.84
58967;BME280;44744;51.894;5.080;2023-06-26T01:23:20;101345.40;;;22.47;55.84
58967;BME280;44744;51.894;5.080;2023-06-26T01:24:22;101342.05;;;22.44;56.37
58967;BME280;44744;51.894;5.080;2023-06-26T01:25:28;101340.60;;;22.41;56.49
58967;BME280;44744;51.894;5.080;2023-06-26T01:26:29;101344.28;;;22.36;56.73
58967;BME280;44744;51.894;5.080;2023-06-26T01:27:30;101343.34;;;22.32;57.14
58967;BME280;44744;51.894;5.080;2023-06-26T01:28:31;101350.66;;;22.28;57.23
58967;BME280;44744;51.894;5.080;2023-06-26T01:29:32;101351.58;;;22.22;57.28
58967;BME280;44744;51.894;5.080;2023-06-26T01:30:32;101352.41;;;22.19;57.45
58967;BME280;44744;51.894;5.080;2023-06-26T01:31:34;101353.77;;;22.16;57.16
58967;BME280;44744;51.894;5.080;2023-06-26T01:32:34;101348.18;;;22.16;57.48
58967;BME280;44744;51.894;5.080;2023-06-26T01:33:34;101349.58;;;22.14;57.86
58967;BME280;44744;51.894;5.080;2023-06-26T01:34:35;101348.26;;;22.11;57.95
58967;BME280;44744;51.894;5.080;2023-06-26T01:35:53;101350.97;;;22.10;57.90
58967;BME280;44744;51.894;5.080;2023-06-26T01:36:54;101347.86;;;22.08;58.03
58967;BME280;44744;51.894;5.080;2023-06-26T01:38:10;101347.48;;;22.06;58.25
58967;BME280;44744;51.894;5.080;2023-06-26T01:39:14;101355.44;;;22.04;58.65
58967;BME280;44744;51.894;5.080;2023-06-26T01:40:14;101353.10;;;22.00;58.64
58967;BME280;44744;51.894;5.080;2023-06-26T01:41:15;101350.86;;;21.97;58.56
58967;BME280;44744;51.894;5.080;2023-06-26T01:42:15;101352.91;;;21.96;58.97
58967;BME280;44744;51.894;5.080;2023-06-26T01:44:30;101352.84;;;21.90;59.33
58967;BME280;44744;51.894;5.080;2023-06-26T01:45:33;101352.77;;;21.87;59.50
58967;BME280;44744;51.894;5.080;2023-06-26T01:47:37;101357.92;;;21.81;60.02
58967;BME280;44744;51.894;5.080;2023-06-26T01:48:44;101356.52;;;21.79;59.84
58967;BME280;44744;51.894;5.080;2023-06-26T01:49:47;101355.70;;;21.77;60.07
58967;BME280;44744;51.894;5.080;2023-06-26T01:50:50;101356.84;;;21.74;60.53
58967;BME280;44744;51.894;5.080;2023-06-26T01:51:54;101355.81;;;21.72;60.34
58967;BME280;44744;51.894;5.080;2023-06-26T01:53:56;101353.39;;;21.67;60.46
58967;BME280;44744;51.894;5.080;2023-06-26T01:55:59;101350.06;;;21.63;60.75
58967;BME280;44744;51.894;5.080;2023-06-26T01:57:00;101353.46;;;21.64;60.84
58967;BME280;44744;51.894;5.080;2023-06-26T01:58:00;101355.99;;;21.64;61.22
58967;BME280;44744;51.894;5.080;2023-06-26T01:59:01;101355.23;;;21.62;61.11
58967;BME280;44744;51.894;5.080;2023-06-26T02:00:02;101359.33;;;21.61;60.81
58967;BME280;44744;51.894;5.080;2023-06-26T02:01:02;101359.33;;;21.61;61.31
58967;BME280;44744;51.894;5.080;2023-06-26T02:02:03;101353.05;;;21.61;61.42
58967;BME280;44744;51.894;5.080;2023-06-26T02:03:06;101350.19;;;21.59;61.56
58967;BME280;44744;51.894;5.080;2023-06-26T02:04:06;101348.77;;;21.56;61.44
58967;BME280;44744;51.894;5.080;2023-06-26T02:05:07;101351.30;;;21.56;61.56
58967;BME280;44744;51.894;5.080;2023-06-26T02:06:07;101354.42;;;21.56;62.01
58967;BME280;44744;51.894;5.080;2023-06-26T02:07:07;101359.12;;;21.54;61.95
58967;BME280;44744;51.894;5.080;2023-06-26T02:08:10;101363.27;;;21.51;62.02
58967;BME280;44744;51.894;5.080;2023-06-26T02:09:10;101363.34;;;21.48;62.15
58967;BME280;44744;51.894;5.080;2023-06-26T02:10:10;101368.18;;;21.46;62.23
58967;BME280;44744;51.894;5.080;2023-06-26T02:11:11;101370.64;;;21.45;62.57
58967;BME280;44744;51.894;5.080;2023-06-26T02:12:11;101366.41;;;21.42;62.64
58967;BME280;44744;51.894;5.080;2023-06-26T02:13:11;101363.61;;;21.40;62.39
58967;BME280;44744;51.894;5.080;2023-06-26T02:14:11;101364.06;;;21.39;62.35
58967;BME280;44744;51.894;5.080;2023-06-26T02:15:11;101365.34;;;21.39;62.68
58967;BME280;44744;51.894;5.080;2023-06-26T02:16:11;101367.02;;;21.38;62.40
58967;BME280;44744;51.894;5.080;2023-06-26T02:17:11;101367.78;;;21.39;62.64
58967;BME280;44744;51.894;5.080;2023-06-26T02:18:12;101365.40;;;21.40;63.27
58967;BME280;44744;51.894;5.080;2023-06-26T02:19:12;101362.45;;;21.39;63.00
58967;BME280;44744;51.894;5.080;2023-06-26T02:20:12;101362.30;;;21.38;63.39
58967;BME280;44744;51.894;5.080;2023-06-26T02:21:13;101364.77;;;21.37;63.44
58967;BME280;44744;51.894;5.080;2023-06-26T02:22:13;101367.52;;;21.36;63.16
58967;BME280;44744;51.894;5.080;2023-06-26T02:23:14;101370.02;;;21.36;62.94
58967;BME280;44744;51.894;5.080;2023-06-26T02:24:14;101370.40;;;21.38;63.33
58967;BME280;44744;51.894;5.080;2023-06-26T02:25:14;101370.21;;;21.38;62.97
58967;BME280;44744;51.894;5.080;2023-06-26T02:26:14;101367.07;;;21.39;63.17
58967;BME280;44744;51.894;5.080;2023-06-26T02:27:14;101367.08;;;21.39;63.20
58967;BME280;44744;51.894;5.080;2023-06-26T02:28:15;101368.73;;;21.39;63.15
58967;BME280;44744;51.894;5.080;2023-06-26T02:29:15;101364.88;;;21.39;63.51
58967;BME280;44744;51.894;5.080;2023-06-26T02:30:18;101364.77;;;21.39;63.42
58967;BME280;44744;51.894;5.080;2023-06-26T02:31:18;101366.74;;;21.39;63.25
58967;BME280;44744;51.894;5.080;2023-06-26T02:32:18;101369.61;;;21.39;63.66
58967;BME280;44744;51.894;5.080;2023-06-26T02:33:18;101372.04;;;21.38;63.47
58967;BME280;44744;51.894;5.080;2023-06-26T02:34:18;101370.92;;;21.38;63.22
58967;BME280;44744;51.894;5.080;2023-06-26T02:35:19;101366.87;;;21.39;63.62
58967;BME280;44744;51.894;5.080;2023-06-26T02:36:19;101366.39;;;21.39;63.56
58967;BME280;44744;51.894;5.080;2023-06-26T02:37:19;101364.48;;;21.38;63.71
58967;BME280;44744;51.894;5.080;2023-06-26T02:38:19;101360.56;;;21.37;63.91
58967;BME280;44744;51.894;5.080;2023-06-26T02:39:19;101359.94;;;21.36;64.02
58967;BME280;44744;51.894;5.080;2023-06-26T02:40:20;101363.81;;;21.36;64.28
58967;BME280;44744;51.894;5.080;2023-06-26T02:41:20;101365.06;;;21.34;64.05
58967;BME280;44744;51.894;5.080;2023-06-26T02:42:20;101371.59;;;21.33;64.06
58967;BME280;44744;51.894;5.080;2023-06-26T02:43:20;101371.05;;;21.33;64.38
58967;BME280;44744;51.894;5.080;2023-06-26T02:44:20;101367.83;;;21.33;63.99
58967;BME280;44744;51.894;5.080;2023-06-26T02:45:20;101368.06;;;21.34;64.39
58967;BME280;44744;51.894;5.080;2023-06-26T02:46:21;101369.94;;;21.33;64.40
58967;BME280;44744;51.894;5.080;2023-06-26T02:47:21;101372.20;;;21.32;64.17
58967;BME280;44744;51.894;5.080;2023-06-26T02:48:21;101373.36;;;21.34;64.23
58967;BME280;44744;51.894;5.080;2023-06-26T02:49:21;101375.05;;;21.35;64.51
58967;BME280;44744;51.894;5.080;2023-06-26T02:50:21;101371.50;;;21.34;64.19
58967;BME280;44744;51.894;5.080;2023-06-26T02:51:22;101374.04;;;21.34;64.56
58967;BME280;44744;51.894;5.080;2023-06-26T02:52:22;101376.45;;;21.33;64.18
58967;BME280;44744;51.894;5.080;2023-06-26T02:53:22;101380.85;;;21.34;64.05
58967;BME280;44744;51.894;5.080;2023-06-26T02:54:22;101384.27;;;21.36;64.14
58967;BME280;44744;51.894;5.080;2023-06-26T02:55:22;101382.13;;;21.36;64.92
58967;BME280;44744;51.894;5.080;2023-06-26T02:56:22;101379.51;;;21.33;64.58
58967;BME280;44744;51.894;5.080;2023-06-26T02:57:23;101375.71;;;21.31;64.62
58967;BME280;44744;51.894;5.080;2023-06-26T02:58:23;101377.69;;;21.29;64.79
58967;BME280;44744;51.894;5.080;2023-06-26T02:59:23;101380.36;;;21.28;64.63
58967;BME280;44744;51.894;5.080;2023-06-26T03:00:23;101380.79;;;21.27;64.85
58967;BME280;44744;51.894;5.080;2023-06-26T03:01:24;101382.27;;;21.26;64.60
58967;BME280;44744;51.894;5.080;2023-06-26T03:02:24;101385.65;;;21.27;64.58
58967;BME280;44744;51.894;5.080;2023-06-26T03:03:24;101385.50;;;21.26;64.72
58967;BME280;44744;51.894;5.080;2023-06-26T03:04:24;101390.38;;;21.26;64.55
58967;BME280;44744;51.894;5.080;2023-06-26T03:05:24;101392.85;;;21.26;65.02
58967;BME280;44744;51.894;5.080;2023-06-26T03:06:25;101393.52;;;21.25;65.29
58967;BME280;44744;51.894;5.080;2023-06-26T03:07:25;101391.23;;;21.23;65.01
58967;BME280;44744;51.894;5.080;2023-06-26T03:08:25;101386.19;;;21.21;64.92
58967;BME280;44744;51.894;5.080;2023-06-26T03:09:25;101387.09;;;21.21;64.90
58967;BME280;44744;51.894;5.080;2023-06-26T03:10:25;101390.35;;;21.21;64.81
58967;BME280;44744;51.894;5.080;2023-06-26T03:11:25;101388.34;;;21.21;64.75
58967;BME280;44744;51.894;5.080;2023-06-26T03:12:26;101389.05;;;21.21;64.95
58967;BME280;44744;51.894;5.080;2023-06-26T03:13:26;101383.14;;;21.19;65.08
58967;BME280;44744;51.894;5.080;2023-06-26T03:14:26;101382.17;;;21.16;65.12
58967;BME280;44744;51.894;5.080;2023-06-26T03:15:26;101383.24;;;21.13;65.34
58967;BME280;44744;51.894;5.080;2023-06-26T03:16:26;101380.77;;;21.11;65.23
58967;BME280;44744;51.894;5.080;2023-06-26T03:17:26;101380.27;;;21.09;65.07
58967;BME280;44744;51.894;5.080;2023-06-26T03:18:27;101379.50;;;21.09;65.01
58967;BME280;44744;51.894;5.080;2023-06-26T03:19:27;101384.75;;;21.09;65.23
58967;BME280;44744;51.894;5.080;2023-06-26T03:20:27;101384.42;;;21.08;65.12
58967;BME280;44744;51.894;5.080;2023-06-26T03:21:27;101388.04;;;21.08;65.40
58967;BME280;44744;51.894;5.080;2023-06-26T03:22:27;101385.38;;;21.08;65.86
58967;BME280;44744;51.894;5.080;2023-06-26T03:23:27;101387.21;;;21.06;65.98
58967;BME280;44744;51.894;5.080;2023-06-26T03:24:31;101390.51;;;21.03;65.50
58967;BME280;44744;51.894;5.080;2023-06-26T03:25:31;101386.05;;;21.03;65.28
58967;BME280;44744;51.894;5.080;2023-06-26T03:26:31;101380.38;;;21.04;65.99
58967;BME280;44744;51.894;5.080;2023-06-26T03:27:31;101383.50;;;21.03;65.50
58967;BME280;44744;51.894;5.080;2023-06-26T03:28:32;101380.98;;;21.03;65.38
58967;BME280;44744;51.894;5.080;2023-06-26T03:29:32;101388.13;;;21.04;65.36
58967;BME280;44744;51.894;5.080;2023-06-26T03:30:32;101389.42;;;21.05;65.32
58967;BME280;44744;51.894;5.080;2023-06-26T03:31:32;101391.54;;;21.05;65.30
58967;BME280;44744;51.894;5.080;2023-06-26T03:32:32;101395.30;;;21.05;65.76
58967;BME280;44744;51.894;5.080;2023-06-26T03:33:35;101397.71;;;21.03;65.57
58967;BME280;44744;51.894;5.080;2023-06-26T03:34:35;101400.73;;;21.03;66.15
58967;BME280;44744;51.894;5.080;2023-06-26T03:35:35;101400.23;;;21.01;65.87
58967;BME280;44744;51.894;5.080;2023-06-26T03:36:35;101398.05;;;20.99;66.07
58967;BME280;44744;51.894;5.080;2023-06-26T03:37:35;101403.38;;;20.98;65.74
58967;BME280;44744;51.894;5.080;2023-06-26T03:38:36;101403.10;;;20.97;65.87
58967;BME280;44744;51.894;5.080;2023-06-26T03:39:36;101403.55;;;20.96;65.77
58967;BME280;44744;51.894;5.080;2023-06-26T03:40:36;101405.73;;;20.96;65.80
58967;BME280;44744;51.894;5.080;2023-06-26T03:41:36;101407.17;;;20.96;65.77
58967;BME280;44744;51.894;5.080;2023-06-26T03:42:36;101407.91;;;20.95;65.90
58967;BME280;44744;51.894;5.080;2023-06-26T03:43:36;101409.17;;;20.95;65.83
58967;BME280;44744;51.894;5.080;2023-06-26T03:44:37;101405.77;;;20.95;66.16
58967;BME280;44744;51.894;5.080;2023-06-26T03:45:37;101407.10;;;20.94;66.20
58967;BME280;44744;51.894;5.080;2023-06-26T03:46:37;101407.72;;;20.94;66.22
58967;BME280;44744;51.894;5.080;2023-06-26T03:47:40;101412.25;;;20.93;66.43
58967;BME280;44744;51.894;5.080;2023-06-26T03:48:42;101407.60;;;20.91;66.74
58967;BME280;44744;51.894;5.080;2023-06-26T03:49:43;101409.89;;;20.88;66.89
58967;BME280;44744;51.894;5.080;2023-06-26T03:50:43;101413.17;;;20.85;67.26
58967;BME280;44744;51.894;5.080;2023-06-26T03:51:44;101415.55;;;20.83;67.21
58967;BME280;44744;51.894;5.080;2023-06-26T03:52:45;101420.48;;;20.79;67.22
58967;BME280;44744;51.894;5.080;2023-06-26T03:53:45;101426.89;;;20.78;67.29
58967;BME280;44744;51.894;5.080;2023-06-26T03:54:45;101432.08;;;20.76;67.63
58967;BME280;44744;51.894;5.080;2023-06-26T03:55:45;101433.34;;;20.74;67.44
58967;BME280;44744;51.894;5.080;2023-06-26T03:56:45;101433.03;;;20.72;67.56
58967;BME280;44744;51.894;5.080;2023-06-26T03:57:45;101439.36;;;20.69;67.25
58967;BME280;44744;51.894;5.080;2023-06-26T03:58:45;101438.56;;;20.68;67.84
58967;BME280;44744;51.894;5.080;2023-06-26T03:59:46;101441.41;;;20.66;67.54
58967;BME280;44744;51.894;5.080;2023-06-26T04:00:46;101440.83;;;20.64;67.91
58967;BME280;44744;51.894;5.080;2023-06-26T04:01:46;101444.26;;;20.62;68.13
58967;BME280;44744;51.894;5.080;2023-06-26T04:02:47;101444.86;;;20.59;67.93
58967;BME280;44744;51.894;5.080;2023-06-26T04:03:47;101447.31;;;20.56;67.94
58967;BME280;44744;51.894;5.080;2023-06-26T04:04:47;101447.88;;;20.54;68.25
58967;BME280;44744;51.894;5.080;2023-06-26T04:06:08;101447.50;;;20.52;68.35
58967;BME280;44744;51.894;5.080;2023-06-26T04:07:08;101447.76;;;20.47;68.09
58967;BME280;44744;51.894;5.080;2023-06-26T04:08:11;101451.44;;;20.46;68.08
58967;BME280;44744;51.894;5.080;2023-06-26T04:09:11;101451.58;;;20.44;68.24
58967;BME280;44744;51.894;5.080;2023-06-26T04:10:11;101453.91;;;20.42;68.37
58967;BME280;44744;51.894;5.080;2023-06-26T04:11:11;101453.59;;;20.40;68.15
58967;BME280;44744;51.894;5.080;2023-06-26T04:12:11;101454.29;;;20.38;68.38
58967;BME280;44744;51.894;5.080;2023-06-26T04:13:12;101452.91;;;20.35;68.14
58967;BME280;44744;51.894;5.080;2023-06-26T04:14:12;101457.38;;;20.33;68.32
58967;BME280;44744;51.894;5.080;2023-06-26T04:15:12;101460.17;;;20.32;68.16
58967;BME280;44744;51.894;5.080;2023-06-26T04:16:12;101462.00;;;20.32;68.29
58967;BME280;44744;51.894;5.080;2023-06-26T04:17:12;101462.84;;;20.30;68.14
58967;BME280;44744;51.894;5.080;2023-06-26T04:18:12;101462.74;;;20.29;68.24
58967;BME280;44744;51.894;5.080;2023-06-26T04:19:13;101463.36;;;20.28;68.21
58967;BME280;44744;51.894;5.080;2023-06-26T04:20:13;101465.34;;;20.26;68.01
58967;BME280;44744;51.894;5.080;2023-06-26T04:21:13;101465.30;;;20.25;68.06
58967;BME280;44744;51.894;5.080;2023-06-26T04:22:13;101464.02;;;20.23;68.07
58967;BME280;44744;51.894;5.080;2023-06-26T04:23:14;101463.03;;;20.22;67.93
58967;BME280;44744;51.894;5.080;2023-06-26T04:24:14;101462.36;;;20.21;68.09
58967;BME280;44744;51.894;5.080;2023-06-26T04:25:14;101461.34;;;20.21;68.17
58967;BME280;44744;51.894;5.080;2023-06-26T04:27:44;101463.02;;;20.16;68.17
58967;BME280;44744;51.894;5.080;2023-06-26T04:28:44;101460.98;;;20.14;68.07
58967;BME280;44744;51.894;5.080;2023-06-26T04:29:45;101462.34;;;20.13;68.26
58967;BME280;44744;51.894;5.080;2023-06-26T04:30:45;101466.49;;;20.11;68.05
58967;BME280;44744;51.894;5.080;2023-06-26T04:31:45;101469.36;;;20.11;68.08
58967;BME280;44744;51.894;5.080;2023-06-26T04:32:45;101471.17;;;20.10;67.92
58967;BME280;44744;51.894;5.080;2023-06-26T04:33:48;101473.89;;;20.10;68.01
58967;BME280;44744;51.894;5.080;2023-06-26T04:34:48;101475.02;;;20.09;67.75
58967;BME280;44744;51.894;5.080;2023-06-26T04:35:48;101478.50;;;20.09;68.15
58967;BME280;44744;51.894;5.080;2023-06-26T04:36:48;101480.08;;;20.07;68.34
58967;BME280;44744;51.894;5.080;2023-06-26T04:37:51;101483.60;;;20.06;68.20
58967;BME280;44744;51.894;5.080;2023-06-26T04:38:51;101481.62;;;20.04;68.13
58967;BME280;44744;51.894;5.080;2023-06-26T04:39:51;101478.27;;;20.03;68.40
58967;BME280;44744;51.894;5.080;2023-06-26T04:40:51;101478.69;;;20.02;68.35
58967;BME280;44744;51.894;5.080;2023-06-26T04:41:51;101482.52;;;20.02;68.57
58967;BME280;44744;51.894;5.080;2023-06-26T04:42:52;101484.42;;;20.00;68.31
58967;BME280;44744;51.894;5.080;2023-06-26T04:43:52;101484.37;;;20.01;68.51
58967;BME280;44744;51.894;5.080;2023-06-26T04:44:52;101483.95;;;20.02;68.39
58967;BME280;44744;51.894;5.080;2023-06-26T04:45:52;101491.98;;;20.02;68.28
58967;BME280;44744;51.894;5.080;2023-06-26T04:46:55;101491.80;;;20.02;68.55
58967;BME280;44744;51.894;5.080;2023-06-26T04:47:56;101492.39;;;20.02;68.38
58967;BME280;44744;51.894;5.080;2023-06-26T04:48:56;101495.34;;;20.01;68.32
58967;BME280;44744;51.894;5.080;2023-06-26T04:49:56;101495.80;;;20.02;68.58
58967;BME280;44744;51.894;5.080;2023-06-26T04:50:56;101495.64;;;20.01;68.42
58967;BME280;44744;51.894;5.080;2023-06-26T04:51:56;101496.73;;;20.01;68.64
58967;BME280;44744;51.894;5.080;2023-06-26T04:52:56;101499.23;;;20.01;68.81
58967;BME280;44744;51.894;5.080;2023-06-26T04:53:57;101500.33;;;20.01;68.68
58967;BME280;44744;51.894;5.080;2023-06-26T04:54:57;101499.75;;;20.01;68.66
58967;BME280;44744;51.894;5.080;2023-06-26T04:55:57;101499.75;;;20.01;68.75
58967;BME280;44744;51.894;5.080;2023-06-26T04:56:57;101501.79;;;20.01;68.75
58967;BME280;44744;51.894;5.080;2023-06-26T04:57:57;101504.20;;;20.00;68.62
58967;BME280;44744;51.894;5.080;2023-06-26T04:58:58;101504.85;;;20.01;68.61
58967;BME280;44744;51.894;5.080;2023-06-26T04:59:58;101509.32;;;20.01;68.48
58967;BME280;44744;51.894;5.080;2023-06-26T05:00:58;101510.02;;;20.01;68.58
58967;BME280;44744;51.894;5.080;2023-06-26T05:01:58;101507.83;;;20.00;68.43
58967;BME280;44744;51.894;5.080;2023-06-26T05:02:58;101508.30;;;19.98;68.51
58967;BME280;44744;51.894;5.080;2023-06-26T05:03:58;101512.59;;;19.99;68.40
58967;BME280;44744;51.894;5.080;2023-06-26T05:04:59;101514.77;;;19.99;68.52
58967;BME280;44744;51.894;5.080;2023-06-26T05:05:59;101515.91;;;19.97;68.49
58967;BME280;44744;51.894;5.080;2023-06-26T05:06:59;101517.18;;;19.97;68.64
58967;BME280;44744;51.894;5.080;2023-06-26T05:08:06;101517.02;;;19.97;68.81
58967;BME280;44744;51.894;5.080;2023-06-26T05:09:12;101516.86;;;19.97;68.72
58967;BME280;44744;51.894;5.080;2023-06-26T05:10:13;101517.52;;;19.95;68.41
58967;BME280;44744;51.894;5.080;2023-06-26T05:11:14;101518.36;;;19.96;68.69
58967;BME280;44744;51.894;5.080;2023-06-26T05:12:14;101521.55;;;19.97;68.71
58967;BME280;44744;51.894;5.080;2023-06-26T05:13:14;101522.51;;;19.96;68.45
58967;BME280;44744;51.894;5.080;2023-06-26T05:14:14;101520.23;;;19.95;68.36
58967;BME280;44744;51.894;5.080;2023-06-26T05:15:15;101525.61;;;19.95;68.49
58967;BME280;44744;51.894;5.080;2023-06-26T05:16:15;101525.79;;;19.95;68.67
58967;BME280;44744;51.894;5.080;2023-06-26T05:17:15;101525.58;;;19.93;68.39
58967;BME280;44744;51.894;5.080;2023-06-26T05:18:15;101527.14;;;19.91;68.23
58967;BME280;44744;51.894;5.080;2023-06-26T05:19:15;101528.64;;;19.91;68.31
58967;BME280;44744;51.894;5.080;2023-06-26T05:20:16;101526.81;;;19.92;68.48
58967;BME280;44744;51.894;5.080;2023-06-26T05:21:16;101527.16;;;19.91;68.48
58967;BME280;44744;51.894;5.080;2023-06-26T05:22:16;101527.37;;;19.91;68.36
58967;BME280;44744;51.894;5.080;2023-06-26T05:23:16;101529.63;;;19.92;68.36
58967;BME280;44744;51.894;5.080;2023-06-26T05:24:20;101530.55;;;19.92;68.31